createdAt,value
2022-08-05T00:01:00.940Z,5.00
2022-08-05T00:02:07.880Z,5.10
2022-08-05T00:02:58.429Z,4.90
2022-08-05T00:03:58.414Z,4.80
2022-08-05T00:04:58.416Z,4.90
2022-08-05T00:06:04.961Z,5.10
2022-08-05T00:06:58.414Z,5.20
2022-08-05T00:08:00.158Z,5.10
2022-08-05T00:08:58.417Z,4.90
2022-08-05T00:09:58.419Z,5.20
2022-08-05T00:11:00.927Z,4.90
2022-08-05T00:11:59.772Z,4.90
2022-08-05T00:12:58.423Z,4.80
2022-08-05T00:13:58.428Z,5.00
2022-08-05T00:14:58.425Z,5.00
2022-08-05T00:16:00.340Z,4.90
2022-08-05T00:16:58.442Z,4.70
2022-08-05T00:17:58.433Z,5.10
2022-08-05T00:18:58.922Z,5.20
2022-08-05T00:20:02.411Z,5.10
2022-08-05T00:20:58.435Z,4.80
2022-08-05T00:21:58.436Z,4.80
2022-08-05T00:23:02.491Z,4.70
2022-08-05T00:24:10.622Z,4.90
2022-08-05T00:24:58.442Z,5.10
2022-08-05T00:25:58.441Z,5.00
2022-08-05T00:26:58.700Z,4.60
2022-08-05T00:27:58.449Z,4.80
2022-08-05T00:28:58.447Z,4.70
2022-08-05T00:29:58.453Z,4.60
2022-08-05T00:30:58.449Z,4.60
2022-08-05T00:32:11.001Z,4.60
2022-08-05T00:32:58.452Z,4.70
2022-08-05T00:34:56.930Z,5.00
2022-08-05T00:35:06.804Z,4.80
2022-08-05T00:36:16.062Z,4.90
2022-08-05T00:37:10.690Z,5.00
2022-08-05T00:37:58.455Z,4.70
2022-08-05T00:38:59.447Z,4.90
2022-08-05T00:39:59.288Z,4.80
2022-08-05T00:40:58.461Z,4.80
2022-08-05T00:41:58.465Z,4.30
2022-08-05T00:42:58.474Z,4.70
2022-08-05T00:43:58.468Z,5.00
2022-08-05T00:44:58.466Z,4.80
2022-08-05T00:45:58.469Z,4.60
2022-08-05T00:47:02.973Z,5.00
2022-08-05T00:48:05.500Z,4.60
2022-08-05T00:48:58.471Z,4.70
2022-08-05T00:49:58.472Z,4.70
2022-08-05T00:50:58.473Z,4.70
2022-08-05T00:51:58.476Z,4.40
2022-08-05T00:52:58.473Z,4.30
2022-08-05T00:54:02.565Z,4.50
2022-08-05T00:54:58.472Z,4.20
2022-08-05T00:55:58.474Z,4.30
2022-08-05T00:56:58.478Z,4.10
2022-08-05T00:57:59.374Z,4.10
2022-08-05T00:58:58.479Z,4.00
2022-08-05T00:59:58.482Z,3.80
2022-08-05T01:00:58.560Z,3.80
2022-08-05T01:01:58.547Z,3.70
2022-08-05T01:02:59.946Z,4.00
2022-08-05T01:03:58.485Z,4.00
2022-08-05T01:04:58.487Z,4.10
2022-08-05T01:05:58.488Z,3.90
2022-08-05T01:06:58.485Z,4.00
2022-08-05T01:08:39.898Z,4.10
2022-08-05T01:08:58.486Z,3.90
2022-08-05T01:09:58.488Z,3.80
2022-08-05T01:10:58.486Z,4.10
2022-08-05T01:12:01.911Z,4.10
2022-08-05T01:13:05.414Z,4.10
2022-08-05T01:13:59.724Z,4.10
2022-08-05T01:14:58.492Z,4.30
2022-08-05T01:15:58.493Z,3.90
2022-08-05T01:16:58.497Z,4.00
2022-08-05T01:17:58.493Z,4.30
2022-08-05T01:18:58.492Z,4.10
2022-08-05T01:20:01.510Z,4.10
2022-08-05T01:20:58.496Z,4.20
2022-08-05T01:21:58.494Z,4.00
2022-08-05T01:22:58.496Z,3.80
2022-08-05T01:23:58.495Z,3.70
2022-08-05T01:24:58.496Z,3.70
2022-08-05T01:25:58.495Z,3.70
2022-08-05T01:26:58.500Z,3.80
2022-08-05T01:27:58.514Z,3.60
2022-08-05T01:29:04.307Z,3.30
2022-08-05T01:29:58.501Z,3.30
2022-08-05T01:30:58.500Z,3.40
2022-08-05T01:31:58.514Z,3.50
2022-08-05T01:32:58.510Z,3.60
2022-08-05T01:33:58.500Z,3.20
2022-08-05T01:34:58.501Z,3.40
2022-08-05T01:35:58.502Z,3.20
2022-08-05T01:37:00.500Z,3.50
2022-08-05T01:37:58.503Z,3.50
2022-08-05T01:39:00.926Z,3.40
2022-08-05T01:39:59.022Z,3.60
2022-08-05T01:40:58.501Z,3.20
2022-08-05T01:41:58.505Z,3.50
2022-08-05T01:42:58.504Z,3.20
2022-08-05T01:43:58.517Z,3.10
2022-08-05T01:44:59.148Z,3.00
2022-08-05T01:45:58.507Z,3.10
2022-08-05T01:46:58.508Z,3.20
2022-08-05T01:47:58.508Z,3.10
2022-08-05T01:48:58.506Z,3.10
2022-08-05T01:50:01.862Z,3.10
2022-08-05T01:50:58.509Z,2.90
2022-08-05T01:51:58.818Z,3.40
2022-08-05T01:52:58.507Z,3.00
2022-08-05T01:53:58.978Z,3.10
2022-08-05T01:54:58.511Z,3.20
2022-08-05T01:55:58.504Z,3.10
2022-08-05T01:58:10.131Z,2.90
2022-08-05T01:58:11.342Z,2.90
2022-08-05T01:58:58.509Z,3.00
2022-08-05T01:59:58.511Z,2.90
2022-08-05T02:00:58.519Z,2.90
2022-08-05T02:01:58.908Z,2.90
2022-08-05T02:02:58.513Z,3.10
2022-08-05T02:03:58.512Z,3.10
2022-08-05T02:04:58.511Z,2.80
2022-08-05T02:06:00.892Z,2.80
2022-08-05T02:06:58.519Z,2.80
2022-08-05T02:08:01.067Z,3.10
2022-08-05T02:08:59.327Z,2.80
2022-08-05T02:09:58.515Z,3.00
2022-08-05T02:10:58.515Z,2.90
2022-08-05T02:11:58.518Z,3.00
2022-08-05T02:12:58.518Z,2.80
2022-08-05T02:13:58.516Z,2.70
2022-08-05T02:14:58.515Z,2.80
2022-08-05T02:15:58.517Z,2.90
2022-08-05T02:16:58.518Z,2.80
2022-08-05T02:18:32.992Z,2.70
2022-08-05T02:18:58.523Z,2.90
2022-08-05T02:19:58.517Z,2.80
2022-08-05T02:20:58.711Z,2.80
2022-08-05T02:21:58.518Z,2.90
2022-08-05T02:22:58.524Z,2.90
2022-08-05T02:23:58.518Z,2.80
2022-08-05T02:25:00.091Z,2.90
2022-08-05T02:25:58.519Z,2.70
2022-08-05T02:26:58.519Z,2.80
2022-08-05T02:28:00.322Z,2.70
2022-08-05T02:28:58.578Z,2.70
2022-08-05T02:30:00.728Z,2.90
2022-08-05T02:30:58.521Z,2.60
2022-08-05T02:31:58.520Z,2.70
2022-08-05T02:32:58.522Z,2.60
2022-08-05T02:33:58.528Z,3.00
2022-08-05T02:34:58.522Z,2.70
2022-08-05T02:36:00.823Z,2.90
2022-08-05T02:36:58.521Z,2.80
2022-08-05T02:38:00.180Z,2.90
2022-08-05T02:38:58.556Z,2.80
2022-08-05T02:39:58.523Z,2.80
2022-08-05T02:40:58.525Z,2.60
2022-08-05T02:42:01.286Z,2.60
2022-08-05T02:42:58.524Z,2.90
2022-08-05T02:44:06.151Z,2.80
2022-08-05T02:44:58.523Z,2.60
2022-08-05T02:45:58.523Z,2.70
2022-08-05T02:47:00.662Z,2.80
2022-08-05T02:48:11.576Z,2.70
2022-08-05T02:48:58.530Z,2.80
2022-08-05T02:49:58.526Z,2.80
2022-08-05T02:50:58.525Z,2.60
2022-08-05T02:52:04.031Z,2.60
2022-08-05T02:52:58.530Z,2.60
2022-08-05T02:54:04.006Z,2.90
2022-08-05T02:54:58.531Z,2.60
2022-08-05T02:56:00.351Z,2.70
2022-08-05T02:56:58.532Z,2.90
2022-08-05T02:58:10.336Z,2.70
2022-08-05T02:58:58.525Z,2.80
2022-08-05T02:59:59.373Z,2.60
2022-08-05T03:00:58.530Z,2.40
2022-08-05T03:01:58.569Z,2.70
2022-08-05T03:02:58.528Z,2.60
2022-08-05T03:04:02.733Z,2.70
2022-08-05T03:04:58.529Z,2.60
2022-08-05T03:06:57.162Z,2.60
2022-08-05T03:06:59.510Z,2.50
2022-08-05T03:08:04.579Z,2.50
2022-08-05T03:08:58.530Z,2.50
2022-08-05T03:09:58.529Z,2.60
2022-08-05T03:11:53.642Z,2.80
2022-08-05T03:11:58.526Z,2.60
2022-08-05T03:13:19.538Z,2.80
2022-08-05T03:14:03.084Z,2.60
2022-08-05T03:14:58.529Z,2.60
2022-08-05T03:15:58.531Z,2.60
2022-08-05T03:16:59.075Z,2.70
2022-08-05T03:17:59.414Z,2.70
2022-08-05T03:18:58.537Z,2.60
2022-08-05T03:19:58.678Z,2.50
2022-08-05T03:20:58.533Z,2.60
2022-08-05T03:21:58.592Z,2.50
2022-08-05T03:22:58.531Z,2.50
2022-08-05T03:23:58.532Z,2.70
2022-08-05T03:24:58.532Z,2.50
2022-08-05T03:26:04.971Z,2.70
2022-08-05T03:26:58.532Z,2.60
2022-08-05T03:28:00.120Z,2.80
2022-08-05T03:28:58.532Z,2.60
2022-08-05T03:30:07.208Z,2.60
2022-08-05T03:30:58.532Z,2.60
2022-08-05T03:32:00.701Z,2.60
2022-08-05T03:32:58.537Z,2.80
2022-08-05T03:33:58.532Z,2.50
2022-08-05T03:34:58.532Z,2.80
2022-08-05T03:35:58.533Z,2.70
2022-08-05T03:36:58.531Z,2.70
2022-08-05T03:37:58.555Z,2.70
2022-08-05T03:38:58.602Z,2.70
2022-08-05T03:40:01.646Z,2.80
2022-08-05T03:40:58.665Z,2.80
2022-08-05T03:41:58.533Z,2.80
2022-08-05T03:42:58.532Z,2.80
2022-08-05T03:44:11.246Z,2.70
2022-08-05T03:44:58.532Z,2.60
2022-08-05T03:45:59.081Z,2.60
2022-08-05T03:46:58.533Z,2.70
2022-08-05T03:47:58.538Z,2.70
2022-08-05T03:48:58.535Z,2.80
2022-08-05T03:49:58.532Z,2.50
2022-08-05T03:51:04.840Z,2.70
2022-08-05T03:52:37.043Z,2.80
2022-08-05T03:55:00.395Z,2.80
2022-08-05T03:55:06.917Z,2.60
2022-08-05T03:55:54.083Z,2.70
2022-08-05T03:56:10.215Z,2.80
2022-08-05T03:56:58.912Z,2.90
2022-08-05T03:57:58.533Z,2.70
2022-08-05T03:58:58.530Z,2.70
2022-08-05T03:59:58.532Z,2.60
2022-08-05T04:00:58.601Z,2.80
2022-08-05T04:01:58.900Z,2.60
2022-08-05T04:02:59.232Z,2.80
2022-08-05T04:04:10.276Z,2.70
2022-08-05T04:04:58.536Z,2.90
2022-08-05T04:05:59.261Z,2.70
2022-08-05T04:06:58.536Z,2.60
2022-08-05T04:07:59.081Z,2.80
2022-08-05T04:08:58.535Z,2.90
2022-08-05T04:09:58.534Z,2.80
2022-08-05T04:10:58.537Z,2.70
2022-08-05T04:11:58.535Z,2.60
2022-08-05T04:12:58.821Z,2.70
2022-08-05T04:13:58.537Z,2.70
2022-08-05T04:14:58.593Z,2.80
2022-08-05T04:16:04.434Z,2.80
2022-08-05T04:16:58.543Z,2.80
2022-08-05T04:18:00.105Z,2.80
2022-08-05T04:18:58.536Z,2.90
2022-08-05T04:19:58.711Z,2.70
2022-08-05T04:20:58.536Z,2.80
2022-08-05T04:22:08.747Z,2.70
2022-08-05T04:22:58.536Z,2.60
2022-08-05T04:24:06.226Z,2.60
2022-08-05T04:24:58.539Z,2.70
2022-08-05T04:26:00.847Z,2.70
2022-08-05T04:26:58.537Z,2.70
2022-08-05T04:28:00.642Z,2.70
2022-08-05T04:28:58.537Z,2.90
2022-08-05T04:29:58.543Z,2.90
2022-08-05T04:30:58.537Z,2.80
2022-08-05T04:31:58.539Z,2.80
2022-08-05T04:32:58.539Z,2.70
2022-08-05T04:34:19.697Z,2.80
2022-08-05T04:34:58.540Z,3.10
2022-08-05T04:36:11.244Z,2.90
2022-08-05T04:36:58.540Z,2.90
2022-08-05T04:38:01.968Z,2.80
2022-08-05T04:38:58.559Z,2.90
2022-08-05T04:39:58.540Z,3.00
2022-08-05T04:40:58.780Z,2.80
2022-08-05T04:41:58.543Z,2.90
2022-08-05T04:42:58.545Z,3.10
2022-08-05T04:43:58.541Z,2.90
2022-08-05T04:44:58.545Z,3.20
2022-08-05T04:45:58.545Z,3.20
2022-08-05T04:46:58.767Z,3.50
2022-08-05T04:47:58.543Z,3.70
2022-08-05T04:48:58.848Z,3.30
2022-08-05T04:50:02.635Z,3.20
2022-08-05T04:51:03.673Z,3.70
2022-08-05T04:52:00.596Z,3.70
2022-08-05T04:52:58.549Z,4.50
2022-08-05T04:53:58.554Z,4.90
2022-08-05T04:54:58.914Z,4.40
2022-08-05T04:56:15.441Z,5.00
2022-08-05T04:56:59.717Z,5.20
2022-08-05T04:57:58.559Z,5.20
2022-08-05T04:58:58.555Z,4.40
2022-08-05T04:59:58.980Z,2.70
2022-08-05T05:00:58.646Z,2.70
2022-08-05T05:02:07.284Z,2.70
2022-08-05T05:03:03.658Z,2.80
2022-08-05T05:03:58.561Z,2.90
2022-08-05T05:05:01.611Z,3.90
2022-08-05T05:06:35.885Z,3.10
2022-08-05T05:06:58.562Z,3.90
2022-08-05T05:08:01.822Z,3.20
2022-08-05T05:08:58.566Z,3.00
2022-08-05T05:09:58.574Z,2.80
2022-08-05T05:10:58.573Z,2.90
2022-08-05T05:12:01.825Z,3.10
2022-08-05T05:12:58.602Z,2.90
2022-08-05T05:13:58.570Z,2.70
2022-08-05T05:14:58.576Z,3.90
2022-08-05T05:16:01.770Z,3.40
2022-08-05T05:16:58.573Z,3.40
2022-08-05T05:17:58.848Z,3.20
2022-08-05T05:19:18.090Z,3.30
2022-08-05T05:19:58.579Z,2.90
2022-08-05T05:20:58.650Z,3.00
2022-08-05T05:21:58.582Z,2.90
2022-08-05T05:22:58.580Z,2.80
2022-08-05T05:24:03.991Z,2.80
2022-08-05T05:25:01.344Z,2.50
2022-08-05T05:25:58.584Z,2.70
2022-08-05T05:26:58.588Z,2.40
2022-08-05T05:27:58.594Z,2.80
2022-08-05T05:28:58.588Z,2.60
2022-08-05T05:30:05.053Z,2.70
2022-08-05T05:30:58.590Z,2.70
2022-08-05T05:31:58.591Z,2.60
2022-08-05T05:33:00.548Z,2.70
2022-08-05T05:34:01.887Z,2.80
2022-08-05T05:34:58.593Z,2.80
2022-08-05T05:35:58.596Z,2.90
2022-08-05T05:36:58.596Z,3.10
2022-08-05T05:37:59.574Z,3.20
2022-08-05T05:38:58.632Z,3.40
2022-08-05T05:39:58.603Z,3.40
2022-08-05T05:40:58.607Z,3.80
2022-08-05T05:41:58.605Z,3.70
2022-08-05T05:42:58.604Z,3.80
2022-08-05T05:44:00.586Z,4.00
2022-08-05T05:44:59.537Z,3.80
2022-08-05T05:45:58.609Z,3.90
2022-08-05T05:46:58.609Z,4.20
2022-08-05T05:48:06.293Z,3.90
2022-08-05T05:48:58.611Z,4.10
2022-08-05T05:50:01.495Z,4.00
2022-08-05T05:50:58.612Z,3.90
2022-08-05T05:51:58.615Z,4.00
2022-08-05T05:52:58.612Z,3.60
2022-08-05T05:53:59.896Z,3.60
2022-08-05T05:54:58.618Z,3.60
2022-08-05T05:56:01.367Z,3.60
2022-08-05T05:56:58.616Z,3.40
2022-08-05T05:57:58.624Z,3.30
2022-08-05T05:58:58.623Z,3.30
2022-08-05T05:59:58.622Z,3.10
2022-08-05T06:00:58.623Z,2.90
2022-08-05T06:01:58.634Z,3.00
2022-08-05T06:02:58.627Z,3.30
2022-08-05T06:04:02.127Z,3.20
2022-08-05T06:04:58.691Z,3.30
2022-08-05T06:05:58.650Z,2.90
2022-08-05T06:06:58.632Z,3.00
2022-08-05T06:08:02.296Z,2.90
2022-08-05T06:08:58.660Z,2.90
2022-08-05T06:10:00.937Z,2.80
2022-08-05T06:10:58.631Z,2.90
2022-08-05T06:12:01.192Z,2.80
2022-08-05T06:12:58.635Z,2.80
2022-08-05T06:14:00.436Z,2.90
2022-08-05T06:14:58.638Z,2.90
2022-08-05T06:16:28.839Z,3.00
2022-08-05T06:16:58.639Z,3.50
2022-08-05T06:17:58.637Z,3.20
2022-08-05T06:19:00.783Z,3.50
2022-08-05T06:19:59.511Z,4.00
2022-08-05T06:20:58.638Z,3.90
2022-08-05T06:21:58.644Z,3.60
2022-08-05T06:22:58.643Z,3.50
2022-08-05T06:23:58.642Z,3.60
2022-08-05T06:24:58.642Z,3.30
2022-08-05T06:26:12.150Z,3.30
2022-08-05T06:26:58.644Z,3.60
2022-08-05T06:28:10.757Z,3.50
2022-08-05T06:28:58.645Z,8.20
2022-08-05T06:30:04.275Z,9.90
2022-08-05T06:30:58.656Z,10.60
2022-08-05T06:31:58.650Z,7.20
2022-08-05T06:32:58.651Z,6.20
2022-08-05T06:34:07.570Z,4.80
2022-08-05T06:34:59.199Z,6.60
2022-08-05T06:36:03.926Z,7.90
2022-08-05T06:36:58.791Z,4.30
2022-08-05T06:38:00.977Z,3.90
2022-08-05T06:38:58.686Z,4.20
2022-08-05T06:39:58.660Z,4.30
2022-08-05T06:40:58.660Z,4.60
2022-08-05T06:41:59.140Z,4.70
2022-08-05T06:42:58.658Z,4.60
2022-08-05T06:44:00.768Z,3.90
2022-08-05T06:44:58.665Z,3.60
2022-08-05T06:46:06.981Z,3.80
2022-08-05T06:46:58.682Z,5.20
2022-08-05T06:48:44.067Z,5.30
2022-08-05T06:48:59.678Z,5.80
2022-08-05T06:50:01.185Z,5.10
2022-08-05T06:50:58.674Z,5.00
2022-08-05T06:51:58.674Z,4.60
2022-08-05T06:53:11.315Z,3.90
2022-08-05T06:53:58.681Z,2.90
2022-08-05T06:54:58.683Z,2.60
2022-08-05T06:55:58.684Z,2.70
2022-08-05T06:57:57.652Z,2.80
2022-08-05T06:58:11.805Z,2.50
2022-08-05T06:58:58.688Z,2.50
2022-08-05T06:59:58.698Z,2.30
2022-08-05T07:00:58.743Z,3.80
2022-08-05T07:01:58.699Z,3.60
2022-08-05T07:02:58.703Z,3.20
2022-08-05T07:03:58.700Z,2.60
2022-08-05T07:04:58.704Z,3.00
2022-08-05T07:05:58.708Z,3.00
2022-08-05T07:06:58.708Z,2.50
2022-08-05T07:07:58.712Z,3.00
2022-08-05T07:08:59.081Z,2.90
2022-08-05T07:09:58.723Z,2.60
2022-08-05T07:10:58.721Z,3.00
2022-08-05T07:12:00.615Z,2.60
2022-08-05T07:12:58.727Z,2.60
2022-08-05T07:13:59.857Z,2.40
2022-08-05T07:14:58.730Z,2.40
2022-08-05T07:16:01.236Z,2.20
2022-08-05T07:17:59.723Z,2.40
2022-08-05T07:18:08.903Z,2.30
2022-08-05T07:18:58.749Z,2.30
2022-08-05T07:20:58.748Z,2.40
2022-08-05T07:22:00.527Z,2.80
2022-08-05T07:22:58.756Z,2.30
2022-08-05T07:23:58.754Z,2.30
2022-08-05T07:24:58.759Z,2.20
2022-08-05T07:25:58.761Z,2.40
2022-08-05T07:26:58.758Z,2.20
2022-08-05T07:28:04.161Z,2.30
2022-08-05T07:28:59.792Z,2.40
2022-08-05T07:30:27.724Z,2.30
2022-08-05T07:30:58.770Z,2.40
2022-08-05T07:31:58.769Z,2.40
2022-08-05T07:32:58.795Z,2.40
2022-08-05T07:33:59.821Z,2.40
2022-08-05T07:34:58.788Z,2.60
2022-08-05T07:36:03.943Z,2.70
2022-08-05T07:36:58.781Z,2.90
2022-08-05T07:37:58.792Z,2.80
2022-08-05T07:38:58.852Z,3.20
2022-08-05T07:40:04.362Z,3.10
2022-08-05T07:41:00.302Z,2.50
2022-08-05T07:42:14.720Z,2.40
2022-08-05T07:42:58.787Z,2.60
2022-08-05T07:43:58.923Z,2.60
2022-08-05T07:44:58.795Z,2.70
2022-08-05T07:45:59.082Z,2.70
2022-08-05T07:46:58.796Z,2.30
2022-08-05T07:47:58.799Z,2.40
2022-08-05T07:49:02.529Z,2.20
2022-08-05T07:49:58.802Z,2.50
2022-08-05T07:50:58.802Z,2.40
2022-08-05T07:51:58.806Z,2.40
2022-08-05T07:52:58.808Z,2.40
2022-08-05T07:53:58.808Z,2.40
2022-08-05T07:54:58.810Z,2.30
2022-08-05T07:56:06.554Z,2.40
2022-08-05T07:57:14.012Z,2.70
2022-08-05T07:58:03.128Z,2.40
2022-08-05T07:58:59.546Z,2.30
2022-08-05T07:59:58.816Z,2.60
2022-08-05T08:00:58.835Z,2.70
2022-08-05T08:01:58.836Z,2.60
2022-08-05T08:03:15.201Z,2.50
2022-08-05T08:03:58.824Z,2.80
2022-08-05T08:04:58.820Z,2.60
2022-08-05T08:05:58.822Z,2.50
2022-08-05T08:06:58.823Z,2.70
2022-08-05T08:07:59.603Z,2.60
2022-08-05T08:08:58.823Z,2.60
2022-08-05T08:09:58.828Z,2.60
2022-08-05T08:10:58.828Z,2.60
2022-08-05T08:12:00.078Z,2.60
2022-08-05T08:12:58.871Z,2.70
2022-08-05T08:14:00.862Z,2.50
2022-08-05T08:15:02.414Z,2.70
2022-08-05T08:16:35.793Z,2.80
2022-08-05T08:16:58.832Z,2.80
2022-08-05T08:17:58.834Z,2.50
2022-08-05T08:18:58.837Z,2.80
2022-08-05T08:20:22.477Z,2.90
2022-08-05T08:21:02.503Z,2.90
2022-08-05T08:21:58.836Z,2.70
2022-08-05T08:22:58.836Z,2.60
2022-08-05T08:24:02.727Z,2.70
2022-08-05T08:25:03.082Z,2.50
2022-08-05T08:25:59.831Z,2.60
2022-08-05T08:26:58.840Z,2.80
2022-08-05T08:27:58.842Z,2.70
2022-08-05T08:29:02.168Z,2.90
2022-08-05T08:30:05.749Z,2.90
2022-08-05T08:30:58.846Z,2.90
2022-08-05T08:31:58.844Z,2.60
2022-08-05T08:33:02.668Z,2.60
2022-08-05T08:33:58.847Z,2.70
2022-08-05T08:34:58.851Z,2.50
2022-08-05T08:36:18.444Z,2.60
2022-08-05T08:37:04.893Z,2.70
2022-08-05T08:37:58.850Z,2.50
2022-08-05T08:38:58.932Z,2.70
2022-08-05T08:39:58.886Z,2.80
2022-08-05T08:40:58.855Z,2.30
2022-08-05T08:41:59.778Z,2.50
2022-08-05T08:45:16.726Z,2.60
2022-08-05T08:45:18.027Z,2.30
2022-08-05T08:45:18.731Z,2.30
2022-08-05T08:45:58.856Z,2.40
2022-08-05T08:46:58.859Z,2.40
2022-08-05T08:48:06.746Z,2.60
2022-08-05T08:50:07.797Z,2.50
2022-08-05T08:50:22.230Z,2.50
2022-08-05T08:51:07.746Z,2.60
2022-08-05T08:52:03.215Z,2.50
2022-08-05T08:52:58.863Z,2.40
2022-08-05T08:53:58.863Z,2.40
2022-08-05T08:54:58.863Z,2.70
2022-08-05T08:56:05.016Z,2.40
2022-08-05T08:56:58.866Z,2.40
2022-08-05T08:57:58.883Z,2.50
2022-08-05T08:58:58.869Z,2.40
2022-08-05T08:59:58.869Z,2.30
2022-08-05T09:00:58.893Z,2.40
2022-08-05T09:02:01.169Z,2.50
2022-08-05T09:02:58.873Z,2.40
2022-08-05T09:03:58.874Z,2.50
2022-08-05T09:05:17.626Z,2.50
2022-08-05T09:06:08.867Z,2.40
2022-08-05T09:06:58.914Z,2.50
2022-08-05T09:07:59.227Z,2.30
2022-08-05T09:08:58.876Z,2.50
2022-08-05T09:09:58.877Z,2.30
2022-08-05T09:10:58.876Z,2.30
2022-08-05T09:12:03.390Z,2.30
2022-08-05T09:13:04.511Z,2.40
2022-08-05T09:14:00.767Z,2.40
2022-08-05T09:15:05.622Z,2.40
2022-08-05T09:15:58.882Z,2.60
2022-08-05T09:16:58.881Z,2.50
2022-08-05T09:17:58.882Z,2.40
2022-08-05T09:18:59.417Z,2.50
2022-08-05T09:20:02.926Z,2.40
2022-08-05T09:20:58.884Z,2.40
2022-08-05T09:22:22.888Z,2.30
2022-08-05T09:23:04.871Z,2.20
2022-08-05T09:24:02.349Z,2.40
2022-08-05T09:24:58.898Z,2.30
2022-08-05T09:26:02.798Z,2.40
2022-08-05T09:26:58.888Z,2.40
2022-08-05T09:28:05.139Z,2.30
2022-08-05T09:28:58.888Z,2.30
2022-08-05T09:30:01.230Z,2.40
2022-08-05T09:30:58.893Z,2.30
2022-08-05T09:32:40.852Z,2.30
2022-08-05T09:32:58.900Z,2.20
2022-08-05T09:33:59.276Z,2.30
2022-08-05T09:34:58.896Z,2.20
2022-08-05T09:35:58.896Z,2.30
2022-08-05T09:36:59.824Z,2.30
2022-08-05T09:38:16.366Z,2.50
2022-08-05T09:38:58.932Z,2.40
2022-08-05T09:39:58.962Z,2.40
2022-08-05T09:40:58.902Z,2.50
2022-08-05T09:41:58.901Z,2.20
2022-08-05T09:42:58.902Z,2.40
2022-08-05T09:43:58.903Z,2.50
2022-08-05T09:45:17.596Z,2.50
2022-08-05T09:46:06.828Z,2.40
2022-08-05T09:46:58.905Z,2.50
2022-08-05T09:47:58.910Z,2.50
2022-08-05T09:49:07.595Z,2.50
2022-08-05T09:50:02.364Z,2.50
2022-08-05T09:50:58.911Z,2.50
2022-08-05T09:51:58.912Z,2.30
2022-08-05T09:52:58.915Z,2.40
2022-08-05T09:53:59.375Z,2.50
2022-08-05T09:54:58.916Z,2.60
2022-08-05T09:56:04.036Z,2.80
2022-08-05T09:57:01.722Z,3.10
2022-08-05T09:57:59.982Z,3.10
2022-08-05T09:58:58.931Z,3.30
2022-08-05T09:59:58.920Z,3.20
2022-08-05T10:00:58.919Z,3.90
2022-08-05T10:01:58.923Z,4.00
2022-08-05T10:02:59.250Z,3.60
2022-08-05T10:03:59.887Z,3.60
2022-08-05T10:04:58.924Z,4.20
2022-08-05T10:05:58.926Z,4.30
2022-08-05T10:07:01.430Z,4.20
2022-08-05T10:08:35.972Z,4.20
2022-08-05T10:08:58.926Z,4.10
2022-08-05T10:10:14.042Z,4.10
2022-08-05T10:10:58.929Z,4.00
2022-08-05T10:11:58.928Z,3.80
2022-08-05T10:12:58.928Z,3.80
2022-08-05T10:13:58.930Z,3.80
2022-08-05T10:14:58.934Z,4.00
2022-08-05T10:15:58.931Z,4.00
2022-08-05T10:16:58.935Z,3.90
2022-08-05T10:17:58.936Z,3.90
2022-08-05T10:18:58.933Z,3.60
2022-08-05T10:20:03.948Z,3.60
2022-08-05T10:20:58.936Z,3.40
2022-08-05T10:21:58.936Z,3.30
2022-08-05T10:22:58.935Z,3.10
2022-08-05T10:24:00.323Z,3.20
2022-08-05T10:24:58.934Z,3.10
2022-08-05T10:25:58.937Z,3.10
2022-08-05T10:27:00.505Z,3.20
2022-08-05T10:28:13.576Z,3.40
2022-08-05T10:28:58.979Z,3.10
2022-08-05T10:31:20.356Z,3.10
2022-08-05T10:32:47.374Z,3.20
2022-08-05T10:32:51.846Z,3.20
2022-08-05T10:33:01.911Z,3.00
2022-08-05T10:33:58.941Z,3.00
2022-08-05T10:35:00.832Z,3.10
2022-08-05T10:36:00.071Z,3.20
2022-08-05T10:36:58.946Z,3.10
2022-08-05T10:37:58.945Z,2.90
2022-08-05T10:38:58.986Z,3.00
2022-08-05T10:40:04.177Z,3.10
2022-08-05T10:40:59.115Z,2.70
2022-08-05T10:42:00.994Z,3.10
2022-08-05T10:42:58.954Z,3.00
2022-08-05T10:43:59.281Z,2.80
2022-08-05T10:44:58.953Z,2.60
2022-08-05T10:46:06.188Z,2.90
2022-08-05T10:46:58.954Z,2.70
2022-08-05T10:48:31.962Z,2.90
2022-08-05T10:49:02.652Z,2.80
2022-08-05T10:50:31.980Z,2.80
2022-08-05T10:50:58.957Z,2.60
2022-08-05T10:52:00.255Z,2.70
2022-08-05T10:52:59.008Z,2.70
2022-08-05T10:54:00.888Z,2.40
2022-08-05T10:54:58.976Z,2.40
2022-08-05T10:56:04.632Z,2.80
2022-08-05T10:56:58.972Z,2.50
2022-08-05T10:57:58.970Z,2.40
2022-08-05T10:59:07.199Z,2.30
2022-08-05T11:00:02.451Z,2.30
2022-08-05T11:01:02.774Z,2.20
2022-08-05T11:02:05.381Z,2.20
2022-08-05T11:02:58.981Z,2.30
2022-08-05T11:03:59.031Z,2.20
2022-08-05T11:04:58.982Z,2.10
2022-08-05T11:05:58.986Z,2.10
2022-08-05T11:06:58.984Z,2.10
2022-08-05T11:08:01.123Z,2.10
2022-08-05T11:08:58.988Z,2.10
2022-08-05T11:10:04.086Z,2.20
2022-08-05T11:11:00.886Z,2.00
2022-08-05T11:11:58.991Z,2.20
2022-08-05T11:12:59.000Z,2.20
2022-08-05T11:13:58.994Z,2.20
2022-08-05T11:15:11.911Z,2.40
2022-08-05T11:16:01.576Z,2.00
2022-08-05T11:17:01.171Z,2.10
2022-08-05T11:18:03.730Z,2.00
2022-08-05T11:18:59.003Z,1.90
2022-08-05T11:20:10.501Z,2.00
2022-08-05T11:20:59.233Z,2.00
2022-08-05T11:21:59.008Z,2.00
2022-08-05T11:23:05.763Z,2.00
2022-08-05T11:24:04.139Z,2.00
2022-08-05T11:26:03.149Z,1.80
2022-08-05T11:26:05.736Z,1.80
2022-08-05T11:26:59.018Z,2.00
2022-08-05T11:28:00.550Z,1.80
2022-08-05T11:29:06.744Z,1.90
2022-08-05T11:29:59.022Z,1.90
2022-08-05T11:30:59.025Z,1.90
2022-08-05T11:32:00.469Z,1.90
2022-08-05T11:32:59.030Z,1.80
2022-08-05T11:33:59.030Z,1.80
2022-08-05T11:34:59.032Z,1.90
2022-08-05T11:36:07.706Z,1.90
2022-08-05T11:36:59.037Z,2.20
2022-08-05T11:38:29.638Z,2.00
2022-08-05T11:38:59.357Z,2.00
2022-08-05T11:40:03.186Z,1.80
2022-08-05T11:41:03.430Z,1.70
2022-08-05T11:42:04.207Z,1.70
2022-08-05T11:42:59.050Z,1.80
2022-08-05T11:44:05.640Z,2.00
2022-08-05T11:44:59.051Z,1.90
2022-08-05T11:46:27.344Z,2.10
2022-08-05T11:47:12.054Z,1.80
2022-08-05T11:47:59.062Z,1.70
2022-08-05T11:48:59.065Z,1.70
2022-08-05T11:49:59.062Z,1.70
2022-08-05T11:50:59.063Z,1.60
2022-08-05T11:51:59.067Z,1.80
2022-08-05T11:52:59.069Z,1.80
2022-08-05T11:53:59.068Z,1.60
2022-08-05T11:54:59.072Z,1.80
2022-08-05T11:55:59.073Z,1.80
2022-08-05T11:56:59.078Z,1.80
2022-08-05T11:58:09.557Z,1.80
2022-08-05T11:58:59.079Z,1.90
2022-08-05T11:59:59.084Z,1.80
2022-08-05T12:00:59.088Z,1.80
2022-08-05T12:01:59.090Z,1.90
2022-08-05T12:02:59.143Z,1.80
2022-08-05T12:03:59.090Z,1.80
2022-08-05T12:04:59.971Z,1.90
2022-08-05T12:05:59.102Z,2.10
2022-08-05T12:06:59.099Z,2.10
2022-08-05T12:08:03.702Z,2.00
2022-08-05T12:08:59.104Z,1.80
2022-08-05T12:10:01.958Z,2.00
2022-08-05T12:10:59.108Z,1.90
2022-08-05T12:11:59.112Z,2.00
2022-08-05T12:13:00.310Z,2.00
2022-08-05T12:13:59.431Z,1.90
2022-08-05T12:14:59.120Z,1.90
2022-08-05T12:15:59.121Z,1.80
2022-08-05T12:16:59.123Z,1.90
2022-08-05T12:18:10.231Z,1.70
2022-08-05T12:18:59.130Z,1.60
2022-08-05T12:20:25.691Z,1.70
2022-08-05T12:20:59.134Z,1.60
2022-08-05T12:21:59.136Z,1.80
2022-08-05T12:22:59.152Z,1.80
2022-08-05T12:24:00.099Z,1.70
2022-08-05T12:24:59.144Z,1.80
2022-08-05T12:25:59.146Z,1.60
2022-08-05T12:26:59.149Z,1.70
2022-08-05T12:27:59.152Z,1.60
2022-08-05T12:28:59.157Z,1.70
2022-08-05T12:29:59.160Z,1.80
2022-08-05T12:31:02.273Z,1.70
2022-08-05T12:32:02.190Z,1.70
2022-08-05T12:33:07.295Z,1.60
2022-08-05T12:33:59.166Z,1.50
2022-08-05T12:34:59.168Z,1.70
2022-08-05T12:35:59.235Z,1.70
2022-08-05T12:36:59.174Z,1.70
2022-08-05T12:37:59.177Z,1.70
2022-08-05T12:38:59.244Z,1.70
2022-08-05T12:40:03.184Z,1.70
2022-08-05T12:40:59.183Z,1.60
2022-08-05T12:41:59.187Z,1.70
2022-08-05T12:42:59.192Z,1.70
2022-08-05T12:43:59.193Z,1.90
2022-08-05T12:44:59.195Z,1.70
2022-08-05T12:45:59.200Z,1.90
2022-08-05T12:46:59.204Z,1.60
2022-08-05T12:48:01.725Z,1.60
2022-08-05T12:48:59.205Z,1.70
2022-08-05T12:50:04.464Z,1.70
2022-08-05T12:50:59.217Z,1.60
2022-08-05T12:52:12.832Z,1.70
2022-08-05T12:52:59.218Z,1.70
2022-08-05T12:53:59.224Z,1.70
2022-08-05T12:54:59.221Z,1.70
2022-08-05T12:55:59.223Z,1.70
2022-08-05T12:56:59.225Z,1.80
2022-08-05T12:58:51.067Z,1.70
2022-08-05T12:59:02.523Z,1.70
2022-08-05T13:01:56.932Z,1.70
2022-08-05T13:02:04.063Z,1.80
2022-08-05T13:02:07.756Z,1.90
2022-08-05T13:02:59.298Z,1.80
2022-08-05T13:03:59.250Z,1.60
2022-08-05T13:04:59.263Z,1.90
2022-08-05T13:05:59.261Z,1.80
2022-08-05T13:06:59.264Z,1.70
2022-08-05T13:08:01.136Z,1.70
2022-08-05T13:08:59.268Z,1.70
2022-08-05T13:09:59.275Z,1.70
2022-08-05T13:10:59.273Z,1.60
2022-08-05T13:12:02.767Z,1.70
2022-08-05T13:12:59.286Z,1.60
2022-08-05T13:14:05.755Z,1.60
2022-08-05T13:15:06.757Z,1.60
2022-08-05T13:15:59.290Z,1.50
2022-08-05T13:16:59.293Z,1.60
2022-08-05T13:17:59.477Z,1.70
2022-08-05T13:18:59.296Z,1.60
2022-08-05T13:19:59.292Z,1.50